Time;durP1;ratioP1;P1;durP2;ratioP2;P2;SDS_P1;SDS_P2;PMS_P1;PMS_P2;Temp;Humidity;BMP_temperature;BMP_pressure;BME280_temperature;BME280_humidity;BME280_pressure;Samples;Min_cycle;Max_cycle;Signal;HPM_P1;HPM_P2
2022/05/31 00:01:28;;;;;;;1.60;1.50;;;9.30;99.90;;;;;;5048372;28;20111;-65
2022/05/31 00:03:54;;;;;;;2.30;2.10;;;9.30;99.90;;;;;;5049646;28;20476;-65
2022/05/31 00:06:20;;;;;;;1.92;1.55;;;9.30;99.90;;;;;;5032835;28;20040;-65
2022/05/31 00:08:45;;;;;;;2.03;1.83;;;9.20;99.90;;;;;;5049460;28;20499;-65
2022/05/31 00:11:11;;;;;;;3.75;1.77;;;9.20;99.90;;;;;;5050917;28;20033;-65
2022/05/31 00:13:37;;;;;;;3.72;2.00;;;9.20;99.90;;;;;;5050331;28;20047;-65
2022/05/31 00:16:03;;;;;;;3.45;1.58;;;9.20;99.90;;;;;;5065630;28;20043;-65
2022/05/31 00:18:29;;;;;;;2.70;2.10;;;9.10;99.90;;;;;;5049979;28;20086;-65
2022/05/31 00:20:55;;;;;;;2.63;1.70;;;9.10;99.90;;;;;;5049338;28;20041;-65
2022/05/31 00:23:20;;;;;;;2.25;1.70;;;9.10;99.90;;;;;;5049905;28;20072;-65
2022/05/31 00:25:47;;;;;;;2.03;1.83;;;9.00;99.90;;;;;;5048738;28;20076;-66
2022/05/31 00:28:13;;;;;;;3.58;1.80;;;9.00;99.90;;;;;;5050111;28;20067;-66
2022/05/31 00:30:39;;;;;;;2.30;2.00;;;9.00;99.90;;;;;;5032931;28;20136;-65
2022/05/31 00:33:07;;;;;;;3.22;1.77;;;9.00;99.90;;;;;;5048894;28;20411;-65
2022/05/31 00:35:43;;;;;;;2.65;2.10;;;9.00;99.90;;;;;;5049369;28;20033;-66
2022/05/31 00:38:09;;;;;;;3.10;2.03;;;8.90;99.90;;;;;;5050715;28;20472;-65
2022/05/31 00:40:36;;;;;;;3.03;1.90;;;8.90;99.90;;;;;;5049583;28;20124;-65
2022/05/31 00:43:08;;;;;;;2.90;1.90;;;8.90;99.90;;;;;;5050332;28;20045;-65
2022/05/31 00:45:39;;;;;;;3.38;2.22;;;8.90;99.90;;;;;;5049453;28;20048;-65
2022/05/31 00:48:11;;;;;;;2.25;1.85;;;8.90;99.90;;;;;;5049554;28;20072;-66
2022/05/31 00:50:47;;;;;;;2.50;2.00;;;8.90;99.90;;;;;;5049334;28;20052;-65
2022/05/31 00:53:19;;;;;;;2.30;2.00;;;8.80;99.90;;;;;;5048622;28;20044;-65
2022/05/31 00:55:55;;;;;;;3.03;1.98;;;8.80;99.90;;;;;;5049828;28;20053;-65
2022/05/31 00:58:29;;;;;;;2.47;2.10;;;8.80;99.90;;;;;;5047859;28;20400;-65
2022/05/31 01:00:57;;;;;;;2.60;2.13;;;8.80;99.90;;;;;;5049237;28;20064;-65
2022/05/31 01:03:23;;;;;;;2.97;2.17;;;8.80;99.90;;;;;;5047969;28;20083;-65
2022/05/31 01:05:49;;;;;;;3.20;2.20;;;8.80;99.90;;;;;;5049094;28;20044;-65
2022/05/31 01:08:15;;;;;;;2.20;2.00;;;8.80;99.90;;;;;;5049874;28;20139;-66
2022/05/31 01:10:42;;;;;;;2.78;2.00;;;8.80;99.90;;;;;;5050224;28;20029;-66
2022/05/31 01:13:11;;;;;;;2.33;2.00;;;8.70;99.90;;;;;;5048545;28;20059;-66
2022/05/31 01:15:37;;;;;;;3.63;2.20;;;8.70;99.90;;;;;;5048762;28;20445;-65
2022/05/31 01:18:03;;;;;;;7.03;2.20;;;8.70;99.90;;;;;;5049071;28;20048;-65
2022/05/31 01:20:29;;;;;;;2.92;2.20;;;8.70;99.90;;;;;;5049915;28;20088;-65
2022/05/31 01:22:59;;;;;;;2.53;2.03;;;8.70;99.90;;;;;;5050266;28;20072;-66
2022/05/31 01:25:44;;;;;;;2.80;2.40;;;8.70;99.90;;;;;;5049920;28;20483;-66
2022/05/31 01:28:25;;;;;;;4.40;2.30;;;8.70;99.90;;;;;;5049692;28;20444;-65
2022/05/31 01:30:56;;;;;;;3.83;2.47;;;8.70;99.90;;;;;;5048329;28;20048;-65
2022/05/31 01:33:27;;;;;;;4.03;2.33;;;8.60;99.90;;;;;;5048546;28;20045;-65
2022/05/31 01:35:54;;;;;;;2.10;1.90;;;8.60;99.90;;;;;;5048826;28;20372;-65
2022/05/31 01:38:30;;;;;;;2.72;2.47;;;8.60;99.90;;;;;;5048049;28;20045;-65
2022/05/31 01:41:20;;;;;;;3.60;1.90;;;8.60;99.90;;;;;;5045299;28;20125;-65
2022/05/31 01:43:49;;;;;;;3.45;2.05;;;8.60;99.90;;;;;;5048441;28;20395;-65
2022/05/31 01:46:22;;;;;;;2.92;2.28;;;8.60;99.90;;;;;;5047693;28;20045;-66
2022/05/31 01:48:49;;;;;;;3.75;2.28;;;8.60;99.90;;;;;;5048827;28;20044;-65
2022/05/31 01:51:15;;;;;;;2.22;2.03;;;8.60;99.90;;;;;;5048093;28;20056;-66
2022/05/31 01:53:41;;;;;;;2.60;2.20;;;8.60;99.90;;;;;;5048022;28;20049;-65
2022/05/31 01:56:09;;;;;;;2.88;2.30;;;8.60;99.90;;;;;;5048416;28;20133;-65
2022/05/31 01:58:37;;;;;;;2.58;2.38;;;8.60;99.90;;;;;;5047346;28;20443;-65
2022/05/31 02:01:03;;;;;;;2.55;2.35;;;8.70;99.90;;;;;;5049436;28;20045;-66
2022/05/31 02:03:32;;;;;;;3.10;2.20;;;8.70;99.90;;;;;;5047188;28;20072;-65
2022/05/31 02:05:59;;;;;;;2.92;2.67;;;8.70;99.90;;;;;;5047925;28;20127;-65
2022/05/31 02:08:29;;;;;;;3.75;2.50;;;8.70;99.90;;;;;;5048079;28;20144;-65
2022/05/31 02:10:56;;;;;;;2.42;2.22;;;8.70;99.90;;;;;;5052232;28;20045;-65
2022/05/31 02:13:22;;;;;;;2.50;2.22;;;8.80;99.90;;;;;;5051922;28;20388;-65
2022/05/31 02:15:48;;;;;;;2.90;2.30;;;8.80;99.90;;;;;;5052059;28;20040;-66
2022/05/31 02:18:14;;;;;;;2.42;2.22;;;8.90;99.90;;;;;;5051820;28;20396;-65
2022/05/31 02:20:40;;;;;;;2.40;2.10;;;8.90;99.90;;;;;;5051509;28;20388;-65
2022/05/31 02:23:06;;;;;;;2.80;2.53;;;8.90;99.90;;;;;;5052173;28;20036;-66
2022/05/31 02:25:32;;;;;;;2.50;2.15;;;8.90;99.90;;;;;;5051892;28;20549;-65
2022/05/31 02:27:58;;;;;;;2.70;2.38;;;8.90;99.90;;;;;;5050162;28;20033;-65
2022/05/31 02:30:23;;;;;;;3.15;2.40;;;8.90;99.90;;;;;;5051841;28;20090;-65
2022/05/31 02:32:49;;;;;;;4.85;2.42;;;8.90;99.90;;;;;;5051841;28;20090;-65
2022/05/31 02:35:15;;;;;;;4.40;2.65;;;8.90;99.90;;;;;;5053246;28;20076;-65
2022/05/31 02:37:41;;;;;;;3.65;2.30;;;8.90;99.90;;;;;;5052903;28;20063;-65
2022/05/31 02:40:08;;;;;;;2.90;2.25;;;8.90;99.90;;;;;;5051601;28;20116;-66
2022/05/31 02:42:39;;;;;;;3.30;2.58;;;8.90;99.90;;;;;;5068603;28;20045;-65
2022/05/31 02:45:06;;;;;;;3.45;2.40;;;8.90;99.90;;;;;;5053090;28;20029;-65
2022/05/31 02:47:32;;;;;;;3.88;2.80;;;8.90;99.90;;;;;;5051601;28;20381;-65
2022/05/31 02:49:58;;;;;;;5.15;2.67;;;8.90;99.90;;;;;;5051730;28;20040;-65
2022/05/31 02:52:23;;;;;;;3.53;2.63;;;8.90;99.90;;;;;;5052511;28;20075;-66
2022/05/31 02:54:49;;;;;;;2.67;2.33;;;9.00;99.90;;;;;;5052293;28;20107;-65
2022/05/31 02:57:15;;;;;;;2.83;2.58;;;9.00;99.90;;;;;;5052243;28;20037;-65
2022/05/31 02:59:40;;;;;;;4.18;2.70;;;9.00;99.90;;;;;;5052534;28;20083;-66
2022/05/31 03:02:06;;;;;;;4.05;2.70;;;9.00;99.90;;;;;;5046704;28;20578;-65
2022/05/31 03:04:32;;;;;;;2.97;2.67;;;9.00;99.90;;;;;;5052541;28;20051;-65
2022/05/31 03:07:02;;;;;;;3.33;2.58;;;9.10;99.90;;;;;;5052092;28;20111;-65
2022/05/31 03:09:32;;;;;;;3.33;2.50;;;9.00;99.90;;;;;;5052531;28;20391;-64
2022/05/31 03:12:09;;;;;;;5.32;2.80;;;9.00;99.90;;;;;;5051320;28;20446;-66
2022/05/31 03:14:43;;;;;;;4.15;2.83;;;9.10;99.90;;;;;;5051284;28;20053;-65
2022/05/31 03:17:17;;;;;;;4.95;2.67;;;9.10;99.90;;;;;;5050831;28;20072;-65
2022/05/31 03:19:52;;;;;;;4.05;2.75;;;9.10;99.90;;;;;;5050379;28;20503;-65
2022/05/31 03:22:22;;;;;;;2.90;2.60;;;9.10;99.90;;;;;;5050452;28;20116;-65
2022/05/31 03:24:58;;;;;;;3.10;2.80;;;9.10;99.90;;;;;;5050012;28;20049;-64
2022/05/31 03:27:23;;;;;;;3.60;2.50;;;9.10;99.90;;;;;;5052247;28;20033;-65
2022/05/31 03:29:52;;;;;;;2.90;2.70;;;9.20;99.90;;;;;;5050220;28;20041;-65
2022/05/31 03:32:19;;;;;;;3.40;2.55;;;9.20;99.90;;;;;;5050593;28;20156;-65
2022/05/31 03:34:45;;;;;;;3.13;2.83;;;9.20;99.90;;;;;;5048232;28;20073;-65
2022/05/31 03:37:10;;;;;;;4.00;2.72;;;9.20;99.90;;;;;;5050796;28;20087;-65
2022/05/31 03:39:36;;;;;;;3.10;2.80;;;9.20;99.90;;;;;;5051958;28;20041;-65
2022/05/31 03:42:02;;;;;;;4.60;2.72;;;9.30;99.90;;;;;;5051703;28;21054;-66
2022/05/31 03:44:28;;;;;;;5.93;2.67;;;9.30;99.90;;;;;;5050471;28;20537;-65
2022/05/31 03:46:53;;;;;;;3.47;2.83;;;9.30;99.90;;;;;;5050275;28;20045;-65
2022/05/31 03:49:20;;;;;;;3.47;2.63;;;9.30;99.90;;;;;;5049918;28;20403;-65
2022/05/31 03:51:45;;;;;;;3.20;2.70;;;9.30;99.90;;;;;;5050705;28;20063;-64
2022/05/31 03:54:11;;;;;;;2.70;2.50;;;9.30;99.90;;;;;;5050877;28;20033;-65
2022/05/31 03:56:37;;;;;;;3.50;2.80;;;9.40;99.90;;;;;;5033383;28;20055;-65
2022/05/31 03:59:03;;;;;;;5.60;2.70;;;9.40;99.90;;;;;;5050455;28;20124;-65
2022/05/31 04:01:29;;;;;;;2.88;2.25;;;9.40;99.90;;;;;;5051766;28;20765;-65
2022/05/31 04:03:54;;;;;;;2.67;2.47;;;9.40;99.90;;;;;;5049572;28;20044;-65
2022/05/31 04:06:20;;;;;;;2.60;2.40;;;9.40;99.90;;;;;;5049410;28;20041;-65
2022/05/31 04:08:46;;;;;;;2.65;2.20;;;9.50;99.90;;;;;;5050317;28;20479;-65
2022/05/31 04:11:12;;;;;;;3.92;2.60;;;9.50;99.90;;;;;;5050766;28;20037;-65
2022/05/31 04:13:38;;;;;;;3.22;2.25;;;9.50;99.90;;;;;;5049874;28;20395;-65
2022/05/31 04:16:10;;;;;;;3.47;2.60;;;9.50;99.90;;;;;;5050627;28;20116;-65
2022/05/31 04:18:37;;;;;;;2.47;2.22;;;9.60;99.90;;;;;;5051455;28;20041;-65
2022/05/31 04:21:05;;;;;;;3.30;2.60;;;9.60;99.90;;;;;;5051037;28;20045;-65
2022/05/31 04:26:16;;;;;;;2.47;2.20;;;9.70;99.90;;;;;;5048439;28;20045;-65
2022/05/31 04:28:42;;;;;;;2.58;2.22;;;9.70;99.90;;;;;;5051383;28;20480;-65
2022/05/31 04:31:07;;;;;;;2.63;2.10;;;9.70;99.90;;;;;;5049433;28;20041;-65
2022/05/31 04:33:33;;;;;;;2.55;2.30;;;9.70;99.90;;;;;;5050719;28;20537;-65
2022/05/31 04:36:05;;;;;;;3.15;2.30;;;9.80;99.90;;;;;;5050175;28;20090;-65
2022/05/31 04:38:32;;;;;;;3.00;2.50;;;9.80;99.90;;;;;;5050378;28;20044;-65
2022/05/31 04:40:58;;;;;;;3.90;2.50;;;9.80;99.90;;;;;;5049036;28;20051;-65
2022/05/31 04:43:23;;;;;;;4.13;2.45;;;9.80;99.90;;;;;;5049125;28;20513;-65
2022/05/31 04:45:49;;;;;;;4.00;2.75;;;9.90;99.90;;;;;;5050045;28;20032;-65
2022/05/31 04:48:15;;;;;;;4.20;2.30;;;9.90;99.90;;;;;;5048780;28;20051;-66
2022/05/31 04:50:40;;;;;;;3.58;2.28;;;9.90;99.90;;;;;;5050228;28;20416;-66
2022/05/31 04:53:06;;;;;;;4.82;2.40;;;9.90;99.90;;;;;;5050378;28;20037;-65
2022/05/31 04:55:32;;;;;;;2.70;2.22;;;10.00;99.90;;;;;;5049751;28;20140;-66
2022/05/31 04:57:57;;;;;;;4.30;2.40;;;10.00;99.90;;;;;;5050447;28;20116;-65
2022/05/31 05:00:23;;;;;;;2.40;2.20;;;10.00;99.90;;;;;;5049773;28;20095;-65
2022/05/31 05:02:48;;;;;;;3.63;2.22;;;10.00;99.90;;;;;;5048931;28;20080;-65
2022/05/31 05:05:14;;;;;;;3.40;2.33;;;10.10;99.90;;;;;;5048848;28;20132;-65
2022/05/31 05:07:40;;;;;;;5.07;2.33;;;10.10;99.90;;;;;;5049862;28;20032;-65
2022/05/31 05:10:07;;;;;;;4.25;2.40;;;10.10;99.90;;;;;;5049161;28;20033;-65
2022/05/31 05:12:34;;;;;;;2.70;2.30;;;10.10;99.90;;;;;;5049041;28;20484;-65
2022/05/31 05:15:00;;;;;;;4.18;2.40;;;10.10;99.90;;;;;;5047786;28;20040;-65
2022/05/31 05:17:26;;;;;;;4.75;2.40;;;10.10;99.90;;;;;;5048891;28;20041;-65
2022/05/31 05:19:52;;;;;;;2.40;2.20;;;10.20;99.90;;;;;;5048275;28;20045;-65
2022/05/31 05:22:17;;;;;;;4.07;2.47;;;10.20;99.90;;;;;;5049861;28;20044;-65
2022/05/31 05:24:43;;;;;;;3.35;2.40;;;10.30;99.90;;;;;;5048848;28;20064;-66
2022/05/31 05:27:09;;;;;;;5.53;3.53;;;10.30;99.90;;;;;;5049006;28;20087;-65
2022/05/31 05:32:18;;;;;;;5.82;2.92;;;10.40;99.90;;;;;;5048588;28;20049;-65
2022/05/31 05:34:49;;;;;;;4.50;2.55;;;10.50;99.90;;;;;;5047560;28;20045;-66
2022/05/31 05:37:16;;;;;;;4.05;2.20;;;10.50;99.90;;;;;;5048941;28;20041;-65
2022/05/31 05:39:43;;;;;;;4.13;2.42;;;10.60;99.90;;;;;;5044093;28;20077;-66
2022/05/31 05:42:09;;;;;;;3.20;2.90;;;10.60;99.90;;;;;;5064462;28;20049;-66
2022/05/31 05:44:34;;;;;;;4.57;2.63;;;10.60;99.90;;;;;;5050092;28;20048;-66
2022/05/31 05:47:05;;;;;;;3.88;2.55;;;10.60;99.90;;;;;;5051992;28;20049;-64
2022/05/31 05:49:30;;;;;;;3.65;2.30;;;10.70;99.90;;;;;;5052215;28;20053;-65
2022/05/31 05:51:59;;;;;;;2.85;2.28;;;10.70;99.90;;;;;;5051250;28;20407;-65
2022/05/31 05:54:25;;;;;;;3.53;2.30;;;10.80;99.90;;;;;;5053404;28;20044;-65
2022/05/31 05:56:51;;;;;;;5.05;2.95;;;10.80;99.90;;;;;;5051176;28;20392;-65
2022/05/31 05:59:18;;;;;;;4.68;2.80;;;10.80;99.90;;;;;;5052001;28;20395;-65
2022/05/31 06:02:12;;;;;;;3.15;2.45;;;10.90;99.90;;;;;;5051780;28;20048;-65
2022/05/31 06:04:56;;;;;;;4.25;2.60;;;10.90;99.90;;;;;;5050245;28;20083;-65
2022/05/31 06:07:30;;;;;;;4.40;2.30;;;11.00;99.90;;;;;;5052231;28;20076;-66
2022/05/31 06:10:09;;;;;;;5.40;2.70;;;11.00;99.90;;;;;;5052976;28;20428;-66
2022/05/31 06:12:40;;;;;;;5.00;2.55;;;11.00;99.90;;;;;;5052045;28;20048;-65
2022/05/31 06:15:10;;;;;;;4.28;2.70;;;11.10;99.90;;;;;;5048576;28;20049;-66
2022/05/31 06:17:41;;;;;;;3.53;2.47;;;11.10;99.90;;;;;;5051484;28;20063;-65
2022/05/31 06:20:09;;;;;;;4.05;2.40;;;11.20;99.90;;;;;;5051344;28;20047;-66
2022/05/31 06:22:40;;;;;;;4.07;2.80;;;11.30;99.90;;;;;;5052197;28;20415;-65
2022/05/31 06:25:06;;;;;;;3.85;2.78;;;11.40;99.90;;;;;;5050009;28;20037;-65
2022/05/31 06:27:32;;;;;;;4.47;2.40;;;11.50;99.90;;;;;;5050953;28;20789;-65
2022/05/31 06:29:58;;;;;;;5.75;2.50;;;11.60;99.90;;;;;;5051366;28;20091;-65
2022/05/31 06:32:24;;;;;;;4.63;2.42;;;11.70;99.90;;;;;;5053646;28;20036;-65
2022/05/31 06:34:49;;;;;;;3.38;2.35;;;11.90;99.90;;;;;;5052063;28;20037;-66
2022/05/31 06:37:16;;;;;;;5.70;2.60;;;12.00;99.90;;;;;;5053131;28;20033;-67
2022/05/31 06:39:44;;;;;;;3.85;2.60;;;12.10;99.90;;;;;;5052223;28;20336;-65
2022/05/31 06:42:11;;;;;;;3.83;2.25;;;12.20;99.90;;;;;;5053193;28;20546;-65
2022/05/31 06:44:39;;;;;;;3.53;2.53;;;12.50;99.90;;;;;;5053351;28;20040;-66
2022/05/31 06:47:06;;;;;;;4.85;2.45;;;12.60;99.90;;;;;;5052881;28;20045;-65
2022/05/31 06:49:33;;;;;;;4.22;2.72;;;12.90;99.90;;;;;;5051889;28;20037;-66
2022/05/31 06:57:33;;;;;;;3.35;2.40;;;13.50;99.90;;;;;;5051577;28;20045;-65
2022/05/31 06:59:58;;;;;;;2.97;2.22;;;13.70;99.90;;;;;;5051857;28;20364;-65
2022/05/31 07:02:25;;;;;;;4.13;2.42;;;13.90;99.90;;;;;;5052585;28;20044;-66
2022/05/31 07:04:51;;;;;;;5.10;2.10;;;14.10;99.90;;;;;;5051422;28;20083;-66
2022/05/31 07:07:16;;;;;;;6.65;2.20;;;14.30;99.90;;;;;;5052581;28;20053;-65
2022/05/31 07:09:42;;;;;;;3.47;2.33;;;14.40;99.90;;;;;;5051667;28;20040;-66
2022/05/31 07:12:08;;;;;;;3.13;1.92;;;14.60;99.90;;;;;;5051419;28;20391;-66
2022/05/31 07:14:33;;;;;;;3.15;2.15;;;14.70;99.90;;;;;;5051403;28;20120;-65
2022/05/31 07:16:59;;;;;;;3.40;2.10;;;14.90;99.90;;;;;;5052395;28;20040;-66
2022/05/31 07:19:25;;;;;;;5.80;2.38;;;15.00;99.90;;;;;;5051145;28;20083;-66
2022/05/31 07:21:50;;;;;;;5.95;2.28;;;15.00;99.90;;;;;;5052582;28;20051;-66
2022/05/31 07:24:16;;;;;;;4.38;1.85;;;15.10;99.90;;;;;;5051057;28;20450;-66
2022/05/31 07:26:42;;;;;;;5.03;1.90;;;15.30;99.90;;;;;;5052585;28;20117;-65
2022/05/31 07:29:09;;;;;;;3.67;2.50;;;15.40;99.90;;;;;;5034174;28;20052;-66
2022/05/31 07:31:36;;;;;;;3.40;2.22;;;15.60;99.90;;;;;;5052139;28;20055;-66
2022/05/31 07:34:01;;;;;;;3.65;2.30;;;15.70;99.90;;;;;;5047266;28;20053;-66
2022/05/31 07:36:27;;;;;;;5.50;2.55;;;15.90;99.90;;;;;;5050418;28;20033;-66
2022/05/31 07:38:53;;;;;;;3.63;2.10;;;16.00;99.90;;;;;;5050375;28;20045;-66
2022/05/31 07:41:19;;;;;;;5.88;2.22;;;16.10;99.90;;;;;;5050299;28;20115;-65
2022/05/31 07:43:45;;;;;;;4.75;2.38;;;16.10;99.90;;;;;;5051955;28;20032;-66
2022/05/31 07:46:11;;;;;;;5.53;2.30;;;16.20;99.90;;;;;;5051519;28;20435;-66
2022/05/31 07:48:38;;;;;;;7.03;2.50;;;16.20;99.90;;;;;;5033666;28;20116;-66
2022/05/31 07:51:04;;;;;;;5.90;2.40;;;16.40;99.90;;;;;;5050001;28;20127;-66
2022/05/31 07:53:31;;;;;;;6.25;2.30;;;16.40;99.90;;;;;;5051631;28;20071;-66
2022/05/31 07:56:00;;;;;;;4.68;2.63;;;16.50;99.90;;;;;;5051366;28;20090;-66
2022/05/31 07:58:32;;;;;;;4.47;3.00;;;16.60;99.90;;;;;;5051090;28;20029;-66
2022/05/31 08:01:04;;;;;;;5.35;2.53;;;16.70;99.90;;;;;;5051564;28;20480;-66
2022/05/31 08:03:30;;;;;;;5.60;2.90;;;16.70;99.90;;;;;;5050933;28;20040;-66
2022/05/31 08:05:56;;;;;;;8.32;2.85;;;16.80;99.90;;;;;;5050644;28;20040;-66
2022/05/31 08:08:22;;;;;;;5.45;2.60;;;16.90;99.90;;;;;;5033450;28;20519;-65
2022/05/31 08:10:48;;;;;;;5.68;2.67;;;17.00;99.90;;;;;;5050754;28;20048;-66
2022/05/31 08:13:13;;;;;;;8.27;2.85;;;17.00;99.90;;;;;;5051241;28;20052;-66
2022/05/31 08:15:39;;;;;;;5.10;2.50;;;17.10;99.90;;;;;;5051604;28;20364;-66
2022/05/31 08:18:05;;;;;;;6.93;2.65;;;17.20;99.90;;;;;;5050087;28;20037;-66
2022/05/31 08:20:31;;;;;;;6.32;2.95;;;17.20;99.90;;;;;;5049852;28;20033;-67
2022/05/31 08:22:56;;;;;;;5.57;2.63;;;17.40;99.90;;;;;;5050196;28;20365;-66
2022/05/31 08:25:22;;;;;;;4.63;2.53;;;17.30;99.90;;;;;;5049821;28;20041;-66
2022/05/31 08:27:48;;;;;;;5.97;3.03;;;17.40;99.90;;;;;;5051188;28;20033;-67
2022/05/31 08:30:13;;;;;;;5.60;2.88;;;17.50;99.90;;;;;;5050202;28;20045;-66
2022/05/31 08:32:39;;;;;;;4.60;2.60;;;17.60;99.90;;;;;;5049693;28;20037;-66
2022/05/31 08:35:07;;;;;;;6.22;3.05;;;17.80;99.90;;;;;;5051220;28;20047;-66
2022/05/31 08:37:32;;;;;;;6.95;3.28;;;18.00;99.90;;;;;;5049828;28;20044;-65
2022/05/31 08:39:58;;;;;;;6.82;2.67;;;18.00;99.50;;;;;;5051133;28;20553;-66
2022/05/31 08:43:02;;;;;;;6.65;3.00;;;18.10;98.80;;;;;;5049693;28;20468;-66
2022/05/31 08:45:41;;;;;;;3.63;2.70;;;18.00;97.50;;;;;;5049442;28;20402;-66
2022/05/31 08:48:30;;;;;;;8.90;3.50;;;18.00;97.30;;;;;;5049618;28;20084;-66
2022/05/31 08:56:59;;;;;;;10.98;3.25;;;18.00;97.20;;;;;;5049473;28;20053;-66
2022/05/31 08:59:35;;;;;;;7.25;3.00;;;18.00;95.60;;;;;;5050875;28;20095;-66
2022/05/31 09:02:09;;;;;;;6.43;3.10;;;17.90;96.10;;;;;;5050845;28;20033;-66
2022/05/31 09:04:43;;;;;;;6.70;3.38;;;17.90;95.50;;;;;;5049464;28;20122;-65
2022/05/31 09:07:26;;;;;;;5.53;3.10;;;17.70;94.60;;;;;;5050763;28;20419;-65
2022/05/31 09:10:04;;;;;;;5.65;3.08;;;17.60;95.20;;;;;;5049552;28;20048;-66
2022/05/31 09:12:48;;;;;;;5.38;3.50;;;17.40;94.90;;;;;;5049282;28;20079;-66
2022/05/31 09:15:41;;;;;;;7.60;3.50;;;17.30;95.10;;;;;;5049560;28;20456;-66
2022/05/31 09:18:16;;;;;;;5.20;3.30;;;17.10;96.00;;;;;;5050022;28;20045;-66
2022/05/31 09:21:00;;;;;;;5.93;3.08;;;17.00;95.40;;;;;;5049001;28;20407;-66
2022/05/31 09:23:31;;;;;;;6.90;3.25;;;16.90;95.50;;;;;;5047851;28;20037;-66
2022/05/31 09:26:17;;;;;;;7.80;2.90;;;16.80;95.30;;;;;;5048745;28;20369;-66
2022/05/31 09:28:50;;;;;;;6.53;3.35;;;16.80;95.40;;;;;;4994563;28;20076;-66
2022/05/31 09:31:38;;;;;;;6.82;3.15;;;16.70;95.60;;;;;;5011084;28;20061;-66
2022/05/31 09:34:24;;;;;;;8.15;3.05;;;16.70;95.40;;;;;;5027600;28;20065;-66
2022/05/31 09:37:02;;;;;;;6.88;3.50;;;16.70;95.70;;;;;;5010105;28;20046;-66
2022/05/31 09:39:36;;;;;;;7.18;3.22;;;16.70;95.00;;;;;;5027623;28;20539;-66
2022/05/31 09:42:13;;;;;;;6.50;3.13;;;16.70;95.70;;;;;;5011059;28;20037;-66
2022/05/31 09:44:43;;;;;;;7.13;3.00;;;16.70;95.90;;;;;;5010894;28;20060;-66
2022/05/31 09:47:21;;;;;;;5.35;3.00;;;16.60;95.80;;;;;;5011188;28;20072;-66
2022/05/31 09:49:49;;;;;;;5.57;2.72;;;16.60;95.80;;;;;;5027689;28;20052;-66
2022/05/31 09:52:37;;;;;;;8.07;3.13;;;16.60;95.80;;;;;;5011210;28;20057;-66
2022/05/31 09:58:07;;;;;;;6.15;2.80;;;16.50;95.90;;;;;;5027780;28;20041;-66
2022/05/31 10:00:34;;;;;;;6.13;2.83;;;16.50;95.90;;;;;;5027823;28;20065;-66
2022/05/31 10:03:05;;;;;;;4.50;2.20;;;16.50;95.90;;;;;;5027807;28;20103;-65
2022/05/31 10:05:31;;;;;;;6.65;3.08;;;16.50;96.40;;;;;;5039904;28;20084;-66
2022/05/31 10:07:57;;;;;;;6.78;2.97;;;16.50;96.10;;;;;;5031941;28;20039;-66
2022/05/31 10:10:45;;;;;;;7.43;2.70;;;16.60;96.10;;;;;;5049394;28;20480;-66
2022/05/31 10:13:13;;;;;;;5.20;2.80;;;16.60;95.70;;;;;;5049958;28;20503;-66
2022/05/31 10:15:44;;;;;;;4.20;2.65;;;16.60;95.70;;;;;;5048892;28;20444;-66
2022/05/31 10:18:31;;;;;;;5.18;3.35;;;16.50;95.50;;;;;;5049815;28;20092;-66
2022/05/31 10:21:04;;;;;;;5.72;2.90;;;16.50;93.60;;;;;;5048977;28;20040;-66
2022/05/31 10:23:44;;;;;;;4.63;2.55;;;16.40;94.20;;;;;;5050008;28;20062;-65
2022/05/31 10:26:24;;;;;;;8.30;3.10;;;16.30;93.90;;;;;;5048802;28;20073;-65
2022/05/31 10:28:55;;;;;;;6.68;3.10;;;16.30;93.60;;;;;;5048617;28;20495;-66
2022/05/31 10:31:33;;;;;;;6.30;3.13;;;16.30;94.40;;;;;;5052105;28;20044;-65
2022/05/31 10:34:20;;;;;;;5.70;2.90;;;16.30;94.00;;;;;;5051872;28;20048;-66
2022/05/31 10:36:55;;;;;;;6.70;3.42;;;16.30;94.00;;;;;;4998254;28;20488;-66
2022/05/31 10:39:30;;;;;;;7.25;3.55;;;16.20;93.80;;;;;;5014577;28;20049;-65
2022/05/31 10:41:58;;;;;;;6.68;3.10;;;16.20;93.90;;;;;;5014355;28;20045;-65
2022/05/31 10:44:35;;;;;;;5.47;3.30;;;16.10;94.30;;;;;;5031194;28;20092;-66
2022/05/31 10:47:13;;;;;;;5.38;3.20;;;16.10;94.10;;;;;;5030591;28;20045;-65
2022/05/31 10:49:41;;;;;;;6.72;3.13;;;16.10;94.20;;;;;;5031010;28;20388;-66
2022/05/31 10:52:43;;;;;;;8.85;3.53;;;16.00;93.80;;;;;;5014413;28;20388;-66
2022/05/31 10:55:46;;;;;;;5.03;3.13;;;16.00;93.60;;;;;;5013779;28;20045;-65
2022/05/31 10:58:41;;;;;;;7.13;3.10;;;16.00;93.80;;;;;;5014233;28;20510;-67
2022/05/31 11:01:25;;;;;;;9.45;3.25;;;16.00;94.30;;;;;;5010517;28;20117;-66
2022/05/31 11:04:10;;;;;;;4.68;2.90;;;16.00;94.20;;;;;;4994395;28;20133;-66
2022/05/31 11:06:53;;;;;;;5.10;2.67;;;16.00;94.40;;;;;;5010746;28;20425;-66
2022/05/31 11:12:46;;;;;;;6.93;3.30;;;16.00;94.30;;;;;;4994321;28;20117;-65
2022/05/31 11:15:14;;;;;;;4.93;2.80;;;15.90;94.40;;;;;;5008705;28;20037;-66
2022/05/31 11:18:10;;;;;;;4.47;2.47;;;16.00;94.50;;;;;;5013449;28;20047;-65
2022/05/31 11:21:10;;;;;;;6.25;2.88;;;16.00;95.00;;;;;;5013547;28;20045;-66
2022/05/31 11:24:07;;;;;;;6.30;2.70;;;16.10;95.10;;;;;;5030054;28;20052;-65
2022/05/31 11:27:07;;;;;;;5.93;3.13;;;16.00;94.90;;;;;;4990501;28;20088;-66
2022/05/31 11:30:14;;;;;;;6.18;3.17;;;16.00;94.60;;;;;;4910720;29;20576;-66
2022/05/31 11:32:46;;;;;;;4.95;3.40;;;16.00;94.80;;;;;;4908504;29;20056;-66
2022/05/31 11:35:35;;;;;;;4.90;3.77;;;15.90;95.20;;;;;;4913174;29;20059;-65
2022/05/31 11:38:30;;;;;;;5.03;3.25;;;15.90;95.50;;;;;;4913610;29;20056;-66
2022/05/31 11:41:43;;;;;;;4.80;3.20;;;15.80;96.00;;;;;;4897349;29;20103;-66
2022/05/31 11:44:30;;;;;;;5.80;3.40;;;15.90;96.80;;;;;;4913094;29;20071;-66
2022/05/31 11:47:14;;;;;;;8.52;4.00;;;15.90;97.20;;;;;;4912865;29;20055;-66
2022/05/31 11:49:49;;;;;;;7.25;4.22;;;15.90;97.30;;;;;;4897973;29;20064;-65
2022/05/31 11:52:41;;;;;;;5.18;3.38;;;15.80;97.50;;;;;;4897555;29;20066;-66
2022/05/31 11:55:28;;;;;;;6.15;3.75;;;15.80;98.00;;;;;;4897503;29;20088;-66
2022/05/31 11:58:01;;;;;;;5.47;3.22;;;15.80;98.90;;;;;;4913509;29;20056;-66
2022/05/31 12:00:59;;;;;;;7.47;3.83;;;15.80;98.70;;;;;;4897402;29;20091;-66
2022/05/31 12:03:43;;;;;;;8.77;5.95;;;15.80;99.10;;;;;;4915022;29;20055;-66
2022/05/31 12:06:42;;;;;;;5.03;3.25;;;15.80;99.60;;;;;;4928732;28;20524;-66
2022/05/31 12:09:37;;;;;;;9.65;3.70;;;15.90;99.80;;;;;;4954673;28;20050;-66
2022/05/31 12:12:09;;;;;;;5.57;3.30;;;15.90;99.90;;;;;;4970904;28;20122;-66
2022/05/31 12:14:38;;;;;;;7.57;3.67;;;15.90;99.90;;;;;;4938179;28;20093;-65
2022/05/31 12:17:05;;;;;;;4.65;3.08;;;15.90;99.90;;;;;;4954304;28;20130;-66
2022/05/31 12:19:54;;;;;;;9.88;4.55;;;16.00;99.90;;;;;;4954631;28;20466;-66
2022/05/31 12:22:25;;;;;;;7.10;3.75;;;15.90;99.90;;;;;;4970315;28;20574;-66
2022/05/31 12:25:25;;;;;;;7.78;3.83;;;15.90;99.90;;;;;;4970504;28;20042;-66
2022/05/31 12:28:10;;;;;;;7.15;4.65;;;15.90;99.90;;;;;;4916213;29;20051;-65
2022/05/31 12:31:16;;;;;;;8.32;4.82;;;16.00;99.30;;;;;;4915919;29;20134;-65
2022/05/31 12:33:43;;;;;;;8.40;4.50;;;16.00;99.50;;;;;;4915198;29;20069;-66
2022/05/31 12:36:49;;;;;;;9.80;4.95;;;16.00;99.10;;;;;;4916111;29;20406;-66
2022/05/31 12:39:27;;;;;;;8.63;5.53;;;16.00;98.70;;;;;;4933659;28;20043;-65
2022/05/31 12:41:54;;;;;;;9.65;5.50;;;16.00;98.80;;;;;;5009148;28;20049;-66
2022/05/31 12:44:33;;;;;;;9.40;5.43;;;16.10;98.60;;;;;;5008977;28;20069;-66
2022/05/31 12:47:37;;;;;;;8.48;6.07;;;16.00;97.90;;;;;;4992950;28;20046;-65
2022/05/31 12:50:11;;;;;;;10.32;7.57;;;16.10;97.30;;;;;;4992295;28;20120;-65
2022/05/31 12:53:19;;;;;;;10.93;6.25;;;16.10;96.60;;;;;;4975880;28;20045;-66
2022/05/31 12:55:43;;;;;;;9.55;5.85;;;16.10;96.10;;;;;;5008282;28;20220;-66
2022/05/31 12:58:26;;;;;;;8.60;4.75;;;16.20;95.70;;;;;;4992755;28;20065;-66
2022/05/31 13:01:13;;;;;;;14.85;7.72;;;16.40;95.40;;;;;;4992263;28;20042;-66
2022/05/31 13:03:51;;;;;;;11.82;7.25;;;16.60;94.70;;;;;;5026785;28;20044;-66
2022/05/31 13:06:28;;;;;;;8.43;3.72;;;16.90;95.30;;;;;;5047627;28;20445;-66
2022/05/31 13:09:23;;;;;;;5.25;2.88;;;17.10;95.10;;;;;;5048817;28;20037;-66
2022/05/31 13:20:56;;;;;;;7.80;3.83;;;17.60;93.10;;;;;;5048771;28;20049;-66
2022/05/31 13:23:25;;;;;;;7.43;2.85;;;17.80;93.10;;;;;;5049762;28;20063;-65
2022/05/31 13:26:00;;;;;;;6.38;3.15;;;17.90;93.50;;;;;;5048569;28;20052;-66
2022/05/31 13:28:32;;;;;;;10.80;4.60;;;17.90;92.70;;;;;;5050088;28;20381;-66
2022/05/31 13:31:21;;;;;;;4.18;2.70;;;17.80;91.80;;;;;;5048828;28;20047;-65
2022/05/31 13:34:05;;;;;;;7.95;2.53;;;17.60;91.80;;;;;;5048478;28;20040;-65
2022/05/31 13:36:40;;;;;;;4.38;2.33;;;17.40;91.90;;;;;;5049885;28;20571;-66
2022/05/31 13:39:10;;;;;;;4.00;2.45;;;17.40;92.50;;;;;;5048987;28;20036;-66
2022/05/31 13:42:00;;;;;;;5.05;2.40;;;17.40;92.10;;;;;;5048763;28;20041;-66
2022/05/31 13:44:31;;;;;;;6.57;2.47;;;17.40;91.70;;;;;;5050255;28;20064;-65
2022/05/31 13:47:06;;;;;;;4.05;2.63;;;17.30;92.00;;;;;;5048393;28;20049;-66
2022/05/31 13:49:36;;;;;;;4.63;2.50;;;17.20;91.80;;;;;;5050425;28;20782;-66